Time;durP1;ratioP1;P1;durP2;ratioP2;P2;SDS_P1;SDS_P2;PMS_P1;PMS_P2;Temp;Humidity;BMP_temperature;BMP_pressure;BME280_temperature;BME280_humidity;BME280_pressure;Samples;Min_cycle;Max_cycle;Signal;HPM_P1;HPM_P2
2023/04/15 00:02:17;;;;;;;3.58;0.90;;;17.50;70.40;;;;;;5033239;28;20046;-67
2023/04/15 00:04:46;;;;;;;2.50;0.90;;;17.50;71.50;;;;;;5033493;28;20080;-67
2023/04/15 00:07:12;;;;;;;1.60;0.70;;;17.50;70.40;;;;;;5033293;28;20026;-67
2023/04/15 00:09:38;;;;;;;1.38;0.73;;;17.50;70.60;;;;;;5033491;28;20076;-67
2023/04/15 00:12:04;;;;;;;1.15;0.70;;;17.50;70.50;;;;;;5033327;28;20022;-67
2023/04/15 00:14:30;;;;;;;2.80;1.02;;;17.50;70.80;;;;;;5033438;28;20053;-67
2023/04/15 00:16:56;;;;;;;3.78;0.98;;;17.50;70.70;;;;;;5033016;28;20053;-67
2023/04/15 00:19:23;;;;;;;3.78;0.70;;;17.40;70.70;;;;;;5033330;28;20033;-67
2023/04/15 00:21:48;;;;;;;1.98;0.60;;;17.40;70.60;;;;;;5032810;28;20400;-67
2023/04/15 00:24:14;;;;;;;0.95;0.55;;;17.40;70.70;;;;;;5032269;28;20040;-67
2023/04/15 00:26:40;;;;;;;1.27;0.63;;;17.40;70.90;;;;;;5033017;28;20028;-66
2023/04/15 00:29:05;;;;;;;3.00;0.93;;;17.40;70.90;;;;;;5032913;28;20029;-66
2023/04/15 00:31:31;;;;;;;1.58;0.80;;;17.40;70.90;;;;;;5032552;28;20052;-66
2023/04/15 00:33:57;;;;;;;1.65;0.80;;;17.40;70.90;;;;;;5031953;28;20048;-66
2023/04/15 00:36:23;;;;;;;2.03;0.70;;;17.30;71.00;;;;;;5032986;28;20034;-66
2023/04/15 00:38:48;;;;;;;1.98;0.80;;;17.40;71.00;;;;;;5032680;28;20029;-66
2023/04/15 00:41:14;;;;;;;3.10;0.88;;;17.30;71.10;;;;;;5031442;28;20404;-66
2023/04/15 00:43:40;;;;;;;2.00;0.65;;;17.30;71.10;;;;;;5031664;28;20048;-66
2023/04/15 00:46:06;;;;;;;1.75;0.60;;;17.30;71.10;;;;;;5032404;28;20021;-67
2023/04/15 00:48:32;;;;;;;1.52;0.80;;;17.30;71.10;;;;;;5031387;28;20079;-66
2023/04/15 00:50:57;;;;;;;2.22;1.00;;;17.30;71.20;;;;;;5031577;28;20443;-66
2023/04/15 00:53:23;;;;;;;2.05;0.77;;;17.20;71.30;;;;;;5031315;28;20088;-66
2023/04/15 00:55:50;;;;;;;2.20;0.85;;;17.20;71.20;;;;;;5031344;28;20029;-66
2023/04/15 00:58:15;;;;;;;1.67;0.75;;;17.20;71.40;;;;;;5032794;28;20498;-66
2023/04/15 01:00:41;;;;;;;1.20;0.40;;;17.20;71.30;;;;;;5031909;28;20041;-67
2023/04/15 01:03:07;;;;;;;1.33;0.65;;;17.20;71.40;;;;;;5031384;28;20100;-67
2023/04/15 01:05:33;;;;;;;0.80;0.57;;;17.20;71.50;;;;;;5032533;28;20109;-67
2023/04/15 01:07:59;;;;;;;2.08;0.90;;;17.10;71.50;;;;;;5031108;28;20021;-67
2023/04/15 01:10:24;;;;;;;2.30;0.85;;;17.20;71.50;;;;;;5032299;28;20029;-67
2023/04/15 01:12:50;;;;;;;1.83;0.80;;;17.10;71.60;;;;;;5031136;28;20032;-67
2023/04/15 01:15:16;;;;;;;2.70;0.70;;;17.10;71.70;;;;;;5031154;28;20021;-67
2023/04/15 01:17:42;;;;;;;2.10;0.63;;;17.10;71.70;;;;;;5031004;28;20030;-67
2023/04/15 01:20:11;;;;;;;2.28;0.70;;;17.10;71.70;;;;;;5014812;28;20032;-67
2023/04/15 01:22:37;;;;;;;2.10;0.95;;;17.10;71.80;;;;;;5032040;28;20029;-67
2023/04/15 01:25:11;;;;;;;1.23;0.60;;;17.10;71.80;;;;;;5014666;28;20025;-67
2023/04/15 01:27:41;;;;;;;1.83;0.80;;;17.10;72.00;;;;;;5032170;28;20100;-67
2023/04/15 01:30:07;;;;;;;1.65;0.90;;;17.10;72.10;;;;;;5014689;28;20498;-67
2023/04/15 01:32:33;;;;;;;2.08;0.70;;;17.10;72.10;;;;;;5031997;28;20032;-67
2023/04/15 01:34:58;;;;;;;1.30;0.50;;;17.00;72.00;;;;;;5032654;28;20025;-67
2023/04/15 01:37:24;;;;;;;1.35;0.57;;;17.00;72.10;;;;;;5036219;28;20037;-67
2023/04/15 01:39:50;;;;;;;2.05;0.73;;;17.00;72.20;;;;;;5034909;28;20484;-67
2023/04/15 01:42:16;;;;;;;1.23;0.63;;;17.00;72.20;;;;;;5034698;28;20032;-67
2023/04/15 01:44:41;;;;;;;2.92;0.85;;;17.00;72.30;;;;;;5035873;28;20373;-67
2023/04/15 01:47:07;;;;;;;1.30;0.60;;;17.00;72.30;;;;;;5036034;28;20033;-67
2023/04/15 01:49:33;;;;;;;1.67;0.77;;;17.00;72.30;;;;;;5036118;28;20047;-67
2023/04/15 01:51:59;;;;;;;2.70;0.70;;;17.00;72.40;;;;;;5035990;28;20061;-67
2023/04/15 01:54:26;;;;;;;1.38;0.57;;;17.00;72.40;;;;;;5034548;28;20041;-67
2023/04/15 01:56:52;;;;;;;2.08;0.68;;;17.00;72.40;;;;;;5034417;28;20132;-67
2023/04/15 01:59:17;;;;;;;1.70;0.82;;;16.90;72.40;;;;;;5018276;28;20492;-67
2023/04/15 02:01:44;;;;;;;1.80;0.80;;;16.90;72.40;;;;;;5035677;28;20033;-67
2023/04/15 02:04:15;;;;;;;1.58;0.60;;;16.90;72.50;;;;;;5034696;28;20472;-67
2023/04/15 02:06:44;;;;;;;1.35;0.73;;;16.90;72.40;;;;;;5034495;28;20048;-67
2023/04/15 02:09:10;;;;;;;1.95;0.70;;;16.90;72.40;;;;;;5035477;28;20022;-67
2023/04/15 02:11:36;;;;;;;1.25;0.47;;;16.90;72.50;;;;;;5035545;28;20025;-67
2023/04/15 02:14:04;;;;;;;1.90;0.70;;;16.90;72.50;;;;;;5034362;28;20103;-67
2023/04/15 02:16:30;;;;;;;1.38;0.50;;;16.90;72.60;;;;;;5035498;28;20041;-67
2023/04/15 02:18:56;;;;;;;2.30;0.80;;;16.90;72.60;;;;;;5034222;28;20502;-67
2023/04/15 02:21:22;;;;;;;1.77;0.65;;;16.90;72.50;;;;;;5035313;28;20029;-67
2023/04/15 02:23:48;;;;;;;1.45;0.68;;;16.90;72.60;;;;;;5035348;28;20035;-67
2023/04/15 02:26:13;;;;;;;1.38;0.77;;;16.80;72.60;;;;;;5035322;28;20025;-67
2023/04/15 02:28:39;;;;;;;1.75;0.70;;;16.80;72.60;;;;;;5034035;28;20025;-67
2023/04/15 02:31:08;;;;;;;2.63;0.82;;;16.80;72.70;;;;;;5035159;28;20472;-67
2023/04/15 02:33:34;;;;;;;1.77;0.60;;;16.80;73.70;;;;;;5035130;28;20025;-67
2023/04/15 02:36:00;;;;;;;1.80;0.90;;;16.80;72.70;;;;;;5035083;28;20514;-67
2023/04/15 02:38:25;;;;;;;2.05;0.70;;;16.80;72.70;;;;;;5033911;28;20021;-67
2023/04/15 02:40:51;;;;;;;2.40;0.60;;;16.80;72.70;;;;;;5033572;28;20076;-67
2023/04/15 02:43:17;;;;;;;0.90;0.80;;;16.80;72.80;;;;;;5034778;28;20021;-67
2023/04/15 02:45:44;;;;;;;2.78;0.98;;;16.80;72.70;;;;;;5034950;28;20057;-67
2023/04/15 02:48:09;;;;;;;2.25;0.40;;;16.80;72.90;;;;;;5032684;28;20013;-67
2023/04/15 02:50:38;;;;;;;1.33;0.60;;;16.80;72.90;;;;;;5033766;28;20068;-67
2023/04/15 02:53:04;;;;;;;1.83;0.70;;;16.80;73.00;;;;;;5033590;28;20028;-67
2023/04/15 02:55:30;;;;;;;3.15;0.80;;;16.80;72.90;;;;;;5034387;28;20076;-67
2023/04/15 02:57:58;;;;;;;1.73;0.70;;;16.70;73.00;;;;;;5035015;28;20017;-67
2023/04/15 03:00:24;;;;;;;2.47;0.52;;;16.80;73.10;;;;;;5033119;28;20508;-67
2023/04/15 03:02:54;;;;;;;1.67;0.95;;;16.80;73.10;;;;;;5034967;28;20025;-67
2023/04/15 03:05:20;;;;;;;3.05;1.00;;;16.70;73.10;;;;;;5017848;28;20021;-67
2023/04/15 03:07:46;;;;;;;1.42;0.57;;;16.70;73.20;;;;;;5034779;28;20494;-66
2023/04/15 03:10:11;;;;;;;2.10;0.70;;;16.70;73.30;;;;;;5035000;28;20032;-67
2023/04/15 03:12:37;;;;;;;3.58;0.68;;;16.70;73.20;;;;;;5035159;28;20041;-67
2023/04/15 03:15:03;;;;;;;4.40;0.82;;;16.70;73.20;;;;;;5035208;28;20036;-67
2023/04/15 03:17:28;;;;;;;7.20;0.90;;;16.70;73.30;;;;;;5033775;28;20052;-67
2023/04/15 03:19:54;;;;;;;4.95;0.63;;;16.70;73.20;;;;;;5034641;28;20025;-67
2023/04/15 03:22:20;;;;;;;2.47;0.80;;;16.70;73.30;;;;;;5034967;28;20025;-67
2023/04/15 03:24:45;;;;;;;3.65;0.90;;;16.70;73.40;;;;;;5034615;28;20049;-67
2023/04/15 03:27:12;;;;;;;2.53;0.70;;;16.70;73.40;;;;;;5034703;28;20128;-67
2023/04/15 03:29:37;;;;;;;1.48;0.60;;;16.70;73.40;;;;;;5033572;28;20022;-67
2023/04/15 03:32:03;;;;;;;1.80;0.95;;;16.60;73.40;;;;;;5033356;28;20040;-67
2023/04/15 03:34:29;;;;;;;1.15;0.80;;;16.60;73.40;;;;;;5034620;28;20024;-67
2023/04/15 03:36:55;;;;;;;2.38;0.95;;;16.60;73.50;;;;;;5034746;28;20392;-67
2023/04/15 03:39:20;;;;;;;1.25;0.50;;;16.60;73.50;;;;;;5034422;28;20103;-67
2023/04/15 03:41:46;;;;;;;1.73;0.60;;;16.60;73.50;;;;;;5033214;28;20476;-67
2023/04/15 03:44:12;;;;;;;3.28;1.00;;;16.60;73.40;;;;;;5034386;28;20079;-67
2023/04/15 03:46:37;;;;;;;1.83;0.65;;;16.60;73.50;;;;;;5034537;28;20104;-67
2023/04/15 03:49:05;;;;;;;1.00;0.60;;;16.60;73.50;;;;;;5034307;28;20025;-67
2023/04/15 03:51:31;;;;;;;1.55;0.63;;;16.60;73.50;;;;;;5017048;28;20480;-67
2023/04/15 03:53:57;;;;;;;1.50;0.63;;;16.60;73.50;;;;;;5033612;28;20049;-67
2023/04/15 03:56:23;;;;;;;1.45;0.57;;;16.60;73.40;;;;;;5034228;28;20068;-67
2023/04/15 03:58:49;;;;;;;2.50;0.73;;;16.60;73.50;;;;;;5034059;28;20033;-67
2023/04/15 04:01:16;;;;;;;1.50;0.52;;;16.60;73.50;;;;;;5033904;28;20496;-67
2023/04/15 04:03:41;;;;;;;3.30;0.80;;;16.60;73.50;;;;;;5032989;28;20021;-67
2023/04/15 04:06:07;;;;;;;1.48;0.63;;;16.60;73.40;;;;;;5034035;28;20751;-67
2023/04/15 04:08:33;;;;;;;5.18;0.73;;;16.50;73.40;;;;;;5033787;28;20027;-67
2023/04/15 04:10:58;;;;;;;2.78;0.77;;;16.60;73.50;;;;;;5034065;28;20025;-67
2023/04/15 04:13:24;;;;;;;1.60;0.60;;;16.50;73.50;;;;;;5033879;28;20025;-67
2023/04/15 04:15:50;;;;;;;2.75;0.60;;;16.50;73.60;;;;;;5033916;28;20057;-67
2023/04/15 04:18:16;;;;;;;1.48;0.63;;;16.50;73.70;;;;;;5033912;28;20033;-67
2023/04/15 04:20:41;;;;;;;3.88;1.10;;;16.50;73.70;;;;;;5032377;28;20034;-67
2023/04/15 04:23:07;;;;;;;1.70;0.70;;;16.50;73.70;;;;;;5033507;28;20021;-67
2023/04/15 04:25:32;;;;;;;1.65;0.70;;;16.50;73.70;;;;;;5033960;28;20480;-67
2023/04/15 04:27:58;;;;;;;3.25;0.77;;;16.50;74.70;;;;;;5033704;28;20017;-67
2023/04/15 04:30:24;;;;;;;2.28;0.68;;;16.40;73.60;;;;;;5033675;28;20111;-67
2023/04/15 04:32:50;;;;;;;1.27;0.57;;;16.50;73.70;;;;;;5033600;28;20029;-67
2023/04/15 04:35:16;;;;;;;2.05;0.85;;;16.50;73.70;;;;;;5032346;28;20033;-67
2023/04/15 04:37:42;;;;;;;1.08;0.80;;;16.50;73.70;;;;;;5032230;28;20018;-67
2023/04/15 04:40:08;;;;;;;1.02;0.55;;;16.40;73.70;;;;;;5033329;28;20032;-67
2023/04/15 04:42:34;;;;;;;1.35;0.70;;;16.40;73.70;;;;;;5033499;28;20049;-67
2023/04/15 04:44:59;;;;;;;1.00;0.60;;;16.40;73.70;;;;;;5033394;28;20103;-67
2023/04/15 04:47:25;;;;;;;1.48;0.50;;;16.50;73.70;;;;;;5033486;28;20486;-67
2023/04/15 04:49:51;;;;;;;1.80;0.75;;;16.40;73.70;;;;;;5032188;28;20440;-67
2023/04/15 04:52:16;;;;;;;2.03;0.70;;;16.40;73.70;;;;;;5033265;28;20022;-67
2023/04/15 04:54:42;;;;;;;3.50;0.70;;;16.40;73.90;;;;;;5033096;28;20557;-67
2023/04/15 04:57:08;;;;;;;2.40;0.50;;;16.40;73.90;;;;;;5033040;28;20040;-67
2023/04/15 04:59:33;;;;;;;2.92;0.65;;;16.40;73.90;;;;;;5033224;28;20372;-67
2023/04/15 05:01:59;;;;;;;2.65;0.90;;;16.40;74.00;;;;;;5033143;28;20480;-67
2023/04/15 05:04:25;;;;;;;1.95;0.57;;;16.40;74.00;;;;;;5033104;28;20104;-67
2023/04/15 05:06:51;;;;;;;2.78;0.63;;;16.40;74.00;;;;;;5033157;28;20060;-67
2023/04/15 05:09:16;;;;;;;1.42;0.70;;;16.40;74.00;;;;;;5032657;28;20523;-67
2023/04/15 05:11:42;;;;;;;1.65;0.70;;;16.40;74.10;;;;;;5031502;28;20021;-67
2023/04/15 05:14:07;;;;;;;1.92;0.80;;;16.40;74.10;;;;;;5032888;28;20089;-67
2023/04/15 05:16:33;;;;;;;1.00;0.60;;;16.40;74.20;;;;;;5032956;28;20099;-67
2023/04/15 05:18:59;;;;;;;2.35;1.00;;;16.40;74.20;;;;;;5031667;28;20427;-67
2023/04/15 05:21:25;;;;;;;2.08;0.90;;;16.30;74.20;;;;;;5032586;28;20341;-67
2023/04/15 05:23:50;;;;;;;2.30;0.77;;;16.30;74.30;;;;;;5032867;28;20021;-67
2023/04/15 05:26:16;;;;;;;1.95;0.77;;;16.30;74.30;;;;;;5031670;28;20021;-67
2023/04/15 05:28:42;;;;;;;3.97;0.70;;;16.30;74.30;;;;;;5032600;28;20053;-67
2023/04/15 05:31:07;;;;;;;1.95;0.70;;;16.30;74.30;;;;;;5031570;28;20061;-67
2023/04/15 05:33:33;;;;;;;1.70;0.50;;;16.30;74.30;;;;;;5031585;28;20104;-67
2023/04/15 05:35:59;;;;;;;1.35;0.65;;;16.30;74.40;;;;;;5032517;28;20115;-67
2023/04/15 05:38:25;;;;;;;1.35;0.68;;;16.30;74.30;;;;;;5031441;28;20033;-67
2023/04/15 05:40:50;;;;;;;3.28;0.80;;;16.30;74.30;;;;;;5031151;28;20030;-67
2023/04/15 05:43:16;;;;;;;2.25;0.73;;;16.30;74.40;;;;;;5032197;28;20021;-67
2023/04/15 05:45:41;;;;;;;2.92;0.65;;;16.30;74.40;;;;;;5032566;28;20018;-67
2023/04/15 05:48:07;;;;;;;1.60;0.45;;;16.30;74.60;;;;;;5032402;28;20021;-67
2023/04/15 05:50:33;;;;;;;2.50;0.70;;;16.30;74.60;;;;;;5032574;28;20014;-67
2023/04/15 05:52:59;;;;;;;1.85;0.70;;;16.30;74.70;;;;;;5032799;28;20091;-67
2023/04/15 05:55:24;;;;;;;1.35;0.68;;;16.30;74.60;;;;;;5032416;28;20146;-67
2023/04/15 05:57:50;;;;;;;2.97;0.57;;;16.30;74.70;;;;;;5031333;28;20057;-67
2023/04/15 06:00:15;;;;;;;2.33;0.70;;;16.30;74.70;;;;;;5017544;28;20029;-67
2023/04/15 06:02:42;;;;;;;1.63;0.60;;;16.30;74.60;;;;;;5012669;28;20515;-67
2023/04/15 06:05:08;;;;;;;1.45;0.50;;;16.30;74.70;;;;;;5011308;28;20431;-67
2023/04/15 06:07:35;;;;;;;3.00;0.65;;;16.20;74.60;;;;;;5018525;28;20134;-67
2023/04/15 06:10:02;;;;;;;1.65;0.65;;;16.20;74.60;;;;;;5032381;28;20424;-67
2023/04/15 06:12:27;;;;;;;2.13;0.80;;;16.20;74.60;;;;;;5031122;28;20112;-67
2023/04/15 06:14:53;;;;;;;0.93;0.52;;;16.20;74.60;;;;;;5031067;28;20109;-67
2023/04/15 06:17:19;;;;;;;1.40;0.70;;;16.20;74.60;;;;;;5032279;28;20036;-67
2023/04/15 06:19:44;;;;;;;1.73;0.50;;;16.20;74.70;;;;;;5032134;28;20104;-67
2023/04/15 06:22:10;;;;;;;1.90;0.80;;;16.20;74.60;;;;;;5034486;28;20388;-67
2023/04/15 06:24:36;;;;;;;1.20;0.70;;;16.20;74.70;;;;;;5035831;28;20029;-67
2023/04/15 06:27:02;;;;;;;2.97;0.80;;;16.20;74.70;;;;;;5036097;28;20491;-67
2023/04/15 06:29:27;;;;;;;0.85;0.52;;;16.20;74.70;;;;;;5035951;28;20022;-67
2023/04/15 06:31:53;;;;;;;3.13;0.80;;;16.20;74.80;;;;;;5035730;28;20100;-67
2023/04/15 06:34:19;;;;;;;1.30;0.60;;;16.20;74.80;;;;;;5034753;28;20029;-67
2023/04/15 06:36:45;;;;;;;1.42;0.70;;;16.20;74.90;;;;;;5034662;28;20396;-67
2023/04/15 06:39:11;;;;;;;2.35;0.70;;;16.20;74.90;;;;;;5035553;28;20013;-67
2023/04/15 06:41:36;;;;;;;2.15;0.40;;;16.20;74.90;;;;;;5035779;28;20068;-67
2023/04/15 06:44:02;;;;;;;1.85;0.55;;;16.20;74.90;;;;;;5035491;28;20025;-67
2023/04/15 06:46:28;;;;;;;1.52;0.50;;;16.20;75.00;;;;;;5034241;28;20071;-67
2023/04/15 06:48:53;;;;;;;1.45;0.63;;;16.20;75.00;;;;;;5035628;28;20368;-67
2023/04/15 06:51:19;;;;;;;1.17;0.63;;;16.20;75.00;;;;;;5034212;28;20040;-67
2023/04/15 06:53:45;;;;;;;1.90;0.55;;;16.20;75.00;;;;;;5035273;28;20052;-67
2023/04/15 06:56:10;;;;;;;2.20;0.70;;;16.20;75.20;;;;;;5035416;28;20476;-67
2023/04/15 06:58:36;;;;;;;1.15;0.50;;;16.20;75.20;;;;;;5035144;28;20128;-67
2023/04/15 07:01:02;;;;;;;2.55;0.98;;;16.10;75.20;;;;;;5033983;28;20476;-67
2023/04/15 07:03:28;;;;;;;0.95;0.68;;;16.10;75.20;;;;;;5034226;28;20108;-67
2023/04/15 07:05:53;;;;;;;1.77;0.57;;;16.10;75.20;;;;;;5034075;28;20056;-67
2023/04/15 07:08:19;;;;;;;1.88;0.73;;;16.10;75.30;;;;;;5034996;28;20121;-67
2023/04/15 07:10:46;;;;;;;1.90;0.60;;;16.10;75.20;;;;;;5035065;28;20026;-67
2023/04/15 07:13:11;;;;;;;1.35;0.65;;;16.10;75.40;;;;;;5033919;28;20531;-67
2023/04/15 07:15:37;;;;;;;0.93;0.47;;;16.10;75.50;;;;;;5033797;28;20025;-67
2023/04/15 07:18:03;;;;;;;0.90;0.52;;;16.10;75.60;;;;;;5035073;28;20495;-67
2023/04/15 07:20:28;;;;;;;1.60;0.68;;;16.10;75.70;;;;;;5034848;28;20017;-67
2023/04/15 07:22:54;;;;;;;0.90;0.50;;;16.10;75.60;;;;;;5033757;28;20036;-67
2023/04/15 07:25:20;;;;;;;1.65;0.68;;;16.10;75.70;;;;;;5034816;28;20388;-67
2023/04/15 07:27:46;;;;;;;1.83;0.77;;;16.10;75.70;;;;;;5034993;28;20030;-67
2023/04/15 07:30:12;;;;;;;1.13;0.60;;;16.10;75.70;;;;;;5034491;28;20404;-67
2023/04/15 07:32:37;;;;;;;2.08;0.60;;;16.10;75.70;;;;;;5034471;28;20033;-67
2023/04/15 07:35:03;;;;;;;1.35;0.60;;;16.10;75.70;;;;;;5033151;28;20483;-67
2023/04/15 07:37:29;;;;;;;1.83;0.60;;;16.10;75.80;;;;;;5034278;28;20021;-67
2023/04/15 07:39:55;;;;;;;4.43;0.70;;;16.10;75.80;;;;;;5034642;28;20495;-67
2023/04/15 07:42:21;;;;;;;0.80;0.40;;;16.10;77.00;;;;;;5034513;28;20022;-67
2023/04/15 07:44:46;;;;;;;1.15;0.52;;;16.00;75.90;;;;;;5033016;28;20491;-67
2023/04/15 07:47:12;;;;;;;1.52;0.60;;;16.10;76.00;;;;;;5033196;28;20022;-67
2023/04/15 07:49:38;;;;;;;1.60;0.68;;;16.10;76.00;;;;;;5034382;28;20025;-67
2023/04/15 07:52:03;;;;;;;1.58;0.70;;;16.10;76.00;;;;;;5034126;28;20030;-67
2023/04/15 07:54:29;;;;;;;1.52;0.70;;;16.10;76.00;;;;;;5032321;28;20467;-67
2023/04/15 07:56:55;;;;;;;2.17;0.55;;;16.10;76.10;;;;;;5034196;28;20018;-67
2023/04/15 07:59:21;;;;;;;0.88;0.40;;;16.10;76.00;;;;;;5031968;28;20488;-67
2023/04/15 08:01:47;;;;;;;1.60;0.60;;;16.00;76.00;;;;;;5033669;28;20109;-67
2023/04/15 08:04:13;;;;;;;0.95;0.40;;;16.00;76.20;;;;;;5032457;28;20132;-67
2023/04/15 08:06:39;;;;;;;0.95;0.60;;;16.00;76.20;;;;;;5034107;28;20411;-67
2023/04/15 08:09:05;;;;;;;2.53;0.57;;;16.00;76.20;;;;;;5033806;28;20048;-66
2023/04/15 08:11:30;;;;;;;1.88;0.52;;;16.00;75.80;;;;;;5033990;28;20028;-66
2023/04/15 08:13:56;;;;;;;1.30;0.60;;;16.10;75.70;;;;;;5033616;28;20034;-67
2023/04/15 08:16:23;;;;;;;3.30;0.82;;;16.00;74.90;;;;;;5033800;28;20022;-66
2023/04/15 08:18:50;;;;;;;1.67;0.68;;;16.10;74.70;;;;;;5033805;28;20450;-66
2023/04/15 08:21:16;;;;;;;2.15;0.60;;;16.00;74.40;;;;;;5033315;28;20562;-66
2023/04/15 08:23:42;;;;;;;1.67;0.47;;;16.00;74.30;;;;;;5032494;28;20025;-66
2023/04/15 08:26:08;;;;;;;1.10;0.60;;;16.00;74.10;;;;;;5033784;28;20029;-66
2023/04/15 08:28:34;;;;;;;1.02;0.50;;;16.00;74.00;;;;;;5033437;28;20028;-66
2023/04/15 08:31:00;;;;;;;4.05;0.70;;;16.00;73.90;;;;;;5032966;28;20113;-72
2023/04/15 08:33:26;;;;;;;3.35;1.10;;;16.00;73.70;;;;;;5040407;28;20116;-72
2023/04/15 08:35:52;;;;;;;1.92;0.57;;;16.20;73.30;;;;;;5037319;28;20407;-72
2023/04/15 08:38:17;;;;;;;3.22;0.82;;;16.40;72.70;;;;;;5053102;28;20083;-72
2023/04/15 08:40:44;;;;;;;3.25;0.60;;;16.50;72.30;;;;;;5041037;28;20087;-73
2023/04/15 08:43:12;;;;;;;1.25;0.40;;;16.50;72.00;;;;;;5032909;28;20078;-72
2023/04/15 08:45:37;;;;;;;1.27;0.50;;;16.60;71.80;;;;;;5014632;28;20032;-71
2023/04/15 08:48:03;;;;;;;2.30;0.60;;;16.60;71.50;;;;;;5032173;28;20026;-71
2023/04/15 08:50:29;;;;;;;1.77;0.55;;;16.70;71.50;;;;;;5051445;28;20017;-71
2023/04/15 08:52:55;;;;;;;0.70;0.40;;;16.80;71.30;;;;;;5051646;28;20032;-71
2023/04/15 08:55:20;;;;;;;1.45;0.50;;;16.80;71.10;;;;;;5034600;28;20036;-71
2023/04/15 08:57:46;;;;;;;2.70;0.88;;;16.80;71.00;;;;;;5051204;28;20033;-71
2023/04/15 09:00:12;;;;;;;1.63;0.50;;;16.90;70.70;;;;;;5038290;28;20029;-71
2023/04/15 09:02:38;;;;;;;1.25;0.52;;;16.90;70.70;;;;;;5031283;28;20029;-71
2023/04/15 09:05:05;;;;;;;2.13;0.57;;;17.00;70.60;;;;;;5031312;28;20396;-72
2023/04/15 09:07:34;;;;;;;1.90;0.57;;;17.00;70.50;;;;;;5046858;28;20472;-68
2023/04/15 09:10:00;;;;;;;2.15;0.50;;;17.00;70.60;;;;;;5031168;28;20472;-68
2023/04/15 09:12:26;;;;;;;1.52;0.47;;;16.90;71.00;;;;;;5029981;28;20061;-68
2023/04/15 09:14:51;;;;;;;1.88;0.80;;;16.80;71.20;;;;;;5031059;28;20104;-72
2023/04/15 09:17:18;;;;;;;2.15;0.68;;;16.80;71.30;;;;;;5031009;28;20033;-69
2023/04/15 09:19:44;;;;;;;1.20;0.50;;;16.70;71.30;;;;;;5032361;28;20053;-68
2023/04/15 09:22:09;;;;;;;0.95;0.50;;;16.70;71.30;;;;;;5032142;28;20061;-68
2023/04/15 09:24:39;;;;;;;1.27;0.57;;;16.60;71.30;;;;;;5014541;28;20443;-68
2023/04/15 09:27:05;;;;;;;2.22;0.70;;;16.60;71.40;;;;;;5032203;28;20025;-68
2023/04/15 09:29:31;;;;;;;3.10;0.47;;;16.60;71.50;;;;;;5032107;28;20025;-69
2023/04/15 09:32:10;;;;;;;2.70;0.80;;;16.60;71.70;;;;;;5031028;28;20029;-68
2023/04/15 09:34:36;;;;;;;2.00;0.80;;;16.60;71.80;;;;;;5031957;28;20045;-68
2023/04/15 09:37:02;;;;;;;3.85;0.50;;;16.60;72.20;;;;;;5030800;28;20029;-68
2023/04/15 09:39:47;;;;;;;2.05;1.10;;;16.60;72.20;;;;;;5030874;28;20083;-68
2023/04/15 09:42:13;;;;;;;2.65;0.70;;;16.60;72.50;;;;;;5013948;28;20550;-68
2023/04/15 09:44:39;;;;;;;1.65;0.70;;;16.50;72.60;;;;;;5029560;28;20026;-69
2023/04/15 09:47:05;;;;;;;6.95;0.90;;;16.50;73.00;;;;;;5011295;28;20029;-68
2023/04/15 09:49:31;;;;;;;12.35;1.42;;;16.50;73.00;;;;;;5029519;28;20021;-69
2023/04/15 09:52:00;;;;;;;8.93;1.10;;;16.60;74.90;;;;;;5030740;28;20484;-69
2023/04/15 09:54:36;;;;;;;14.43;1.58;;;16.60;74.90;;;;;;5013463;28;20106;-69
2023/04/15 09:57:06;;;;;;;6.88;2.00;;;16.60;75.80;;;;;;5016331;28;20120;-69
2023/04/15 09:59:32;;;;;;;7.63;1.17;;;16.60;76.20;;;;;;5033994;28;20037;-69
2023/04/15 10:01:58;;;;;;;5.93;1.40;;;16.60;76.40;;;;;;5033589;28;20399;-69
2023/04/15 10:04:23;;;;;;;4.22;1.20;;;16.60;76.30;;;;;;5034432;28;20017;-69
2023/04/15 10:06:49;;;;;;;6.22;1.27;;;16.60;76.40;;;;;;5034605;28;20025;-69
2023/04/15 10:09:16;;;;;;;4.13;1.30;;;16.60;76.40;;;;;;5034617;28;20022;-69
2023/04/15 10:11:42;;;;;;;5.88;1.40;;;16.60;76.50;;;;;;5034158;28;20021;-69
2023/04/15 10:14:07;;;;;;;4.03;1.20;;;16.60;76.50;;;;;;5017711;28;20377;-69
2023/04/15 10:16:33;;;;;;;3.97;1.10;;;16.60;76.50;;;;;;5034205;28;20041;-69
2023/04/15 10:19:00;;;;;;;7.38;1.60;;;16.60;76.40;;;;;;5034410;28;20029;-69
2023/04/15 10:21:26;;;;;;;14.05;1.50;;;16.60;76.60;;;;;;5034065;28;20151;-69
2023/04/15 10:23:52;;;;;;;3.50;1.20;;;16.60;76.60;;;;;;5034141;28;20484;-69
2023/04/15 10:26:18;;;;;;;5.35;1.10;;;16.60;76.60;;;;;;5017637;28;20084;-69
2023/04/15 10:28:44;;;;;;;3.28;1.08;;;16.60;76.50;;;;;;5033940;28;20021;-69
2023/04/15 10:31:13;;;;;;;3.53;1.20;;;16.60;76.60;;;;;;5017712;28;20075;-69
2023/04/15 10:33:39;;;;;;;3.10;1.27;;;16.60;76.60;;;;;;5034080;28;20032;-69
2023/04/15 10:36:05;;;;;;;3.72;1.02;;;16.50;76.50;;;;;;5034024;28;20104;-69
2023/04/15 10:38:31;;;;;;;7.15;1.35;;;16.50;76.40;;;;;;5033715;28;20025;-69
2023/04/15 10:41:22;;;;;;;4.85;1.20;;;16.50;76.50;;;;;;5033970;28;20095;-69
2023/04/15 10:44:08;;;;;;;2.80;0.93;;;16.50;76.50;;;;;;5034877;28;20041;-69
2023/04/15 10:46:37;;;;;;;2.58;0.90;;;16.50;76.40;;;;;;5033446;28;20114;-69
2023/04/15 10:49:16;;;;;;;3.30;0.90;;;16.50;76.60;;;;;;5034885;28;20476;-69
2023/04/15 10:51:46;;;;;;;4.13;1.33;;;16.50;76.50;;;;;;5017399;28;20025;-69
2023/04/15 10:54:24;;;;;;;1.63;0.65;;;16.50;76.50;;;;;;5034649;28;20034;-69
2023/04/15 10:57:05;;;;;;;2.20;0.80;;;16.50;76.40;;;;;;5033515;28;20134;-69
2023/04/15 10:59:58;;;;;;;2.92;1.25;;;16.50;76.40;;;;;;5034490;28;20488;-69
2023/04/15 11:02:42;;;;;;;2.83;0.93;;;16.50;76.70;;;;;;5033693;28;20034;-69
2023/04/15 11:05:08;;;;;;;2.80;0.80;;;16.50;76.50;;;;;;5034692;28;20040;-69
2023/04/15 11:07:38;;;;;;;2.22;0.70;;;16.50;76.50;;;;;;5032459;28;20091;-69
2023/04/15 11:10:17;;;;;;;3.33;1.08;;;16.50;76.40;;;;;;5034360;28;20024;-69
2023/04/15 11:12:43;;;;;;;4.10;1.00;;;16.50;76.40;;;;;;5033384;28;20029;-69
2023/04/15 11:15:35;;;;;;;5.10;1.00;;;16.50;76.50;;;;;;5033355;28;20479;-69
2023/04/15 11:18:16;;;;;;;3.40;0.80;;;16.50;76.50;;;;;;5034446;28;20049;-69
2023/04/15 11:20:56;;;;;;;2.85;0.77;;;16.50;76.50;;;;;;5033993;28;20481;-69
2023/04/15 11:23:45;;;;;;;2.63;0.80;;;16.50;76.50;;;;;;5017984;28;20391;-69
2023/04/15 11:26:11;;;;;;;3.28;0.60;;;16.40;76.50;;;;;;5033309;28;20032;-69
2023/04/15 11:28:41;;;;;;;2.75;1.10;;;16.50;76.60;;;;;;5032875;28;20025;-69
2023/04/15 11:31:09;;;;;;;3.17;0.70;;;16.50;76.70;;;;;;5033072;28;20029;-69
2023/04/15 11:33:35;;;;;;;5.00;0.85;;;16.40;76.50;;;;;;5033021;28;20025;-69
2023/04/15 11:36:02;;;;;;;2.20;0.60;;;16.40;76.60;;;;;;5032555;28;20414;-69
2023/04/15 11:38:28;;;;;;;1.58;0.77;;;16.40;76.60;;;;;;5033870;28;20503;-69
2023/04/15 11:40:53;;;;;;;3.70;1.40;;;16.40;76.60;;;;;;5033767;28;20061;-69
2023/04/15 11:43:20;;;;;;;2.70;0.82;;;16.40;76.50;;;;;;5032663;28;20479;-69
2023/04/15 11:45:55;;;;;;;1.58;0.65;;;16.40;76.60;;;;;;5032471;28;20025;-69
2023/04/15 11:48:26;;;;;;;2.30;0.80;;;16.40;76.70;;;;;;5033925;28;20017;-69
2023/04/15 11:51:00;;;;;;;1.40;0.68;;;16.40;76.90;;;;;;5016274;28;20104;-69
2023/04/15 11:53:45;;;;;;;3.28;0.80;;;16.40;76.60;;;;;;5032498;28;20013;-69
2023/04/15 11:56:19;;;;;;;1.73;0.73;;;16.40;76.50;;;;;;5033650;28;20022;-69
2023/04/15 11:58:49;;;;;;;1.35;0.63;;;16.40;76.60;;;;;;5016220;28;20029;-69
2023/04/15 12:01:15;;;;;;;2.53;0.80;;;16.40;76.60;;;;;;5032436;28;20087;-69
2023/04/15 12:03:48;;;;;;;1.90;0.70;;;16.40;76.70;;;;;;5032290;28;20017;-69
2023/04/15 12:06:23;;;;;;;1.83;0.88;;;16.40;76.60;;;;;;5032253;28;20083;-69
2023/04/15 12:09:01;;;;;;;3.67;0.68;;;16.40;76.60;;;;;;5032188;28;20020;-69
2023/04/15 12:11:28;;;;;;;2.40;0.55;;;16.40;76.60;;;;;;5033341;28;20462;-69
2023/04/15 12:14:06;;;;;;;2.28;0.50;;;16.40;76.60;;;;;;5032123;28;20498;-69
2023/04/15 12:16:36;;;;;;;1.63;0.52;;;16.40;76.60;;;;;;5032007;28;20380;-69
2023/04/15 12:19:12;;;;;;;1.38;0.70;;;16.40;76.70;;;;;;5032064;28;20022;-69
2023/04/15 12:21:40;;;;;;;2.35;0.60;;;16.40;76.60;;;;;;5031754;28;20549;-69
2023/04/15 12:24:07;;;;;;;1.42;0.50;;;16.40;76.60;;;;;;5032051;28;20492;-69
2023/04/15 12:26:43;;;;;;;0.98;0.60;;;16.40;76.60;;;;;;5033136;28;20017;-69
2023/04/15 12:29:09;;;;;;;1.13;0.50;;;16.40;76.70;;;;;;5031922;28;20492;-69
2023/04/15 12:31:35;;;;;;;2.58;0.93;;;16.40;76.70;;;;;;5015580;28;20049;-69
2023/04/15 12:34:02;;;;;;;1.23;0.70;;;16.40;76.70;;;;;;5015433;28;20475;-69
2023/04/15 12:36:29;;;;;;;2.50;0.98;;;16.40;76.70;;;;;;5032694;28;20083;-69
2023/04/15 12:38:54;;;;;;;1.25;0.50;;;16.40;76.80;;;;;;5031675;28;20025;-69
2023/04/15 12:41:21;;;;;;;1.58;0.60;;;16.40;76.80;;;;;;5032757;28;20033;-69
2023/04/15 12:43:46;;;;;;;2.25;0.40;;;16.40;76.80;;;;;;5031542;28;20025;-69
2023/04/15 12:46:12;;;;;;;1.33;0.55;;;16.40;76.80;;;;;;5031723;28;20539;-69